Time;durP1;ratioP1;P1;durP2;ratioP2;P2;SDS_P1;SDS_P2;PMS_P1;PMS_P2;Temp;Humidity;BMP_temperature;BMP_pressure;BME280_temperature;BME280_humidity;BME280_pressure;Samples;Min_cycle;Max_cycle;Signal;HPM_P1;HPM_P2
2022/07/31 00:01:42;;;;;;;;;;;;;;;22.01;49.93;101625.50;5024552;28;19925;-86
2022/07/31 00:04:07;;;;;;;;;;;;;;;21.95;49.66;101620.59;5024311;28;20360;-86
2022/07/31 00:06:33;;;;;;;;;;;;;;;21.99;49.22;101622.09;5026293;28;19979;-86
2022/07/31 00:08:58;;;;;;;;;;;;;;;22.03;49.59;101618.19;5020861;28;20016;-86
2022/07/31 00:11:23;;;;;;;;;;;;;;;22.01;48.62;101617.41;5021246;28;20339;-86
2022/07/31 00:13:48;;;;;;;;;;;;;;;21.98;48.77;101617.69;5021764;28;19921;-85
2022/07/31 00:16:13;;;;;;;;;;;;;;;21.99;49.02;101620.25;5021606;28;19921;-87
2022/07/31 00:18:39;;;;;;;;;;;;;;;21.95;48.80;101616.06;5003819;28;19944;-86
2022/07/31 00:21:04;;;;;;;;;;;;;;;21.96;48.84;101611.53;5024128;28;20292;-86
2022/07/31 00:23:29;;;;;;;;;;;;;;;22.01;50.71;101612.03;5020778;28;19928;-86
2022/07/31 00:25:54;;;;;;;;;;;;;;;21.97;51.35;101611.44;5002741;28;19921;-86
2022/07/31 00:28:20;;;;;;;;;;;;;;;21.97;50.39;101616.81;5021839;28;19921;-87
2022/07/31 00:30:45;;;;;;;;;;;;;;;21.86;50.16;101606.84;5017640;28;19925;-86
2022/07/31 00:33:10;;;;;;;;;;;;;;;21.73;51.07;101608.75;5005735;28;19974;-86
2022/07/31 00:35:36;;;;;;;;;;;;;;;21.66;50.12;101607.50;5022454;28;19925;-86
2022/07/31 00:38:01;;;;;;;;;;;;;;;21.63;50.11;101602.31;5018289;28;20403;-87
2022/07/31 00:40:26;;;;;;;;;;;;;;;21.65;49.97;101603.94;5003586;28;19925;-87
2022/07/31 00:42:51;;;;;;;;;;;;;;;21.67;50.51;101608.34;5019854;28;19924;-87
2022/07/31 00:45:16;;;;;;;;;;;;;;;21.70;49.88;101608.13;5019992;28;19924;-87
2022/07/31 00:47:42;;;;;;;;;;;;;;;21.76;50.00;101607.66;5020027;28;20411;-86
2022/07/31 00:50:07;;;;;;;;;;;;;;;21.78;49.70;101601.19;5020510;28;19925;-87
2022/07/31 00:52:32;;;;;;;;;;;;;;;21.81;50.05;101603.63;5019954;28;20442;-87
2022/07/31 00:54:57;;;;;;;;;;;;;;;21.80;50.00;101611.84;5016805;28;20385;-87
2022/07/31 00:57:23;;;;;;;;;;;;;;;21.67;52.30;101603.81;5018638;28;19945;-87
2022/07/31 00:59:48;;;;;;;;;;;;;;;21.50;51.27;101596.16;5003321;28;19917;-87
2022/07/31 01:02:13;;;;;;;;;;;;;;;21.44;51.51;101593.91;5020516;28;19917;-87
2022/07/31 01:04:38;;;;;;;;;;;;;;;21.39;52.51;101591.56;5022706;28;20274;-86
2022/07/31 01:07:04;;;;;;;;;;;;;;;21.34;52.11;101591.03;5017428;28;20367;-87
2022/07/31 01:09:29;;;;;;;;;;;;;;;21.29;52.10;101591.34;5005261;28;20262;-87
2022/07/31 01:12:13;;;;;;;;;;;;;;;21.24;51.47;101595.34;5023814;28;19925;-87
2022/07/31 01:14:40;;;;;;;;;;;;;;;21.09;53.07;101598.19;5013483;28;19925;-87
2022/07/31 01:17:07;;;;;;;;;;;;;;;21.01;51.79;101595.19;5018975;28;19952;-87
2022/07/31 01:19:36;;;;;;;;;;;;;;;20.98;51.99;101598.09;5017659;28;19924;-87
2022/07/31 01:22:20;;;;;;;;;;;;;;;20.97;52.43;101598.19;5020465;28;20431;-87
2022/07/31 01:24:45;;;;;;;;;;;;;;;20.92;52.00;101595.84;5014511;28;19983;-87
2022/07/31 01:27:24;;;;;;;;;;;;;;;20.73;53.46;101603.50;5017569;28;19917;-87
2022/07/31 01:29:52;;;;;;;;;;;;;;;20.69;54.02;101610.91;5018058;28;19927;-87
2022/07/31 01:32:22;;;;;;;;;;;;;;;20.61;54.40;101600.72;5002566;28;19975;-87
2022/07/31 01:34:49;;;;;;;;;;;;;;;20.61;52.73;101589.97;5019687;28;19971;-87
2022/07/31 01:37:16;;;;;;;;;;;;;;;20.60;53.59;101600.81;5020114;28;19921;-87
2022/07/31 01:39:45;;;;;;;;;;;;;;;20.56;53.03;101589.44;5014255;28;19925;-87
2022/07/31 01:42:12;;;;;;;;;;;;;;;20.64;52.98;101591.56;5000539;28;19960;-87
2022/07/31 01:44:40;;;;;;;;;;;;;;;20.62;53.58;101596.22;5017890;28;19921;-87
2022/07/31 01:47:06;;;;;;;;;;;;;;;20.70;52.79;101593.81;5018224;28;19917;-86
2022/07/31 01:49:32;;;;;;;;;;;;;;;20.77;52.41;101592.44;5020164;28;19924;-87
2022/07/31 01:51:58;;;;;;;;;;;;;;;20.81;52.09;101588.56;5019338;28;20471;-87
2022/07/31 01:54:24;;;;;;;;;;;;;;;20.79;52.62;101593.16;5021883;28;19935;-86
2022/07/31 01:56:51;;;;;;;;;;;;;;;20.71;53.68;101581.25;5020255;28;20131;-86
2022/07/31 01:59:18;;;;;;;;;;;;;;;20.67;52.64;101591.38;5011044;28;20015;-87
2022/07/31 02:01:45;;;;;;;;;;;;;;;20.70;52.92;101585.75;5023461;28;20413;-87
2022/07/31 02:04:11;;;;;;;;;;;;;;;20.74;52.78;101587.25;5020447;28;19925;-87
2022/07/31 02:06:37;;;;;;;;;;;;;;;20.74;52.97;101589.09;5021868;28;20000;-86
2022/07/31 02:09:02;;;;;;;;;;;;;;;20.69;52.73;101594.78;5020852;28;19921;-86
2022/07/31 02:11:28;;;;;;;;;;;;;;;20.64;52.64;101584.38;5020827;28;20330;-87
2022/07/31 02:13:54;;;;;;;;;;;;;;;20.66;52.90;101586.06;5020428;28;19929;-86
2022/07/31 02:16:20;;;;;;;;;;;;;;;20.55;53.40;101593.06;5003544;28;19923;-86
2022/07/31 02:18:46;;;;;;;;;;;;;;;20.41;53.72;101584.22;5005514;28;20015;-86
2022/07/31 02:21:11;;;;;;;;;;;;;;;20.35;53.44;101586.38;5021571;28;20395;-87
2022/07/31 02:23:37;;;;;;;;;;;;;;;20.35;54.10;101591.75;5002674;28;19929;-87
2022/07/31 02:26:02;;;;;;;;;;;;;;;20.34;53.39;101584.66;5013366;28;19931;-87
2022/07/31 02:28:29;;;;;;;;;;;;;;;20.23;55.47;101581.84;5021832;28;19921;-86
2022/07/31 02:30:55;;;;;;;;;;;;;;;20.04;55.25;101576.03;5021707;28;20501;-86
2022/07/31 02:33:23;;;;;;;;;;;;;;;20.02;54.39;101581.50;5018647;28;19966;-87
2022/07/31 02:35:49;;;;;;;;;;;;;;;20.06;54.37;101584.84;5017002;28;19925;-86
2022/07/31 02:38:15;;;;;;;;;;;;;;;20.06;54.63;101588.38;5020523;28;19983;-87
2022/07/31 02:40:40;;;;;;;;;;;;;;;19.96;54.68;101591.78;5020062;28;19925;-87
2022/07/31 02:43:06;;;;;;;;;;;;;;;19.96;53.99;101594.47;5020565;28;19925;-87
2022/07/31 02:45:32;;;;;;;;;;;;;;;19.98;54.22;101593.41;5019240;28;19921;-87
2022/07/31 02:47:58;;;;;;;;;;;;;;;20.04;55.56;101581.38;5022140;28;19936;-87
2022/07/31 02:50:23;;;;;;;;;;;;;;;20.05;54.49;101586.69;5021821;28;19921;-86
2022/07/31 02:52:48;;;;;;;;;;;;;;;19.98;53.96;101587.19;5022433;28;19929;-86
2022/07/31 02:55:14;;;;;;;;;;;;;;;19.92;55.93;101577.72;5019320;28;19917;-86
2022/07/31 02:57:39;;;;;;;;;;;;;;;19.84;54.52;101583.59;5021546;28;20411;-87
2022/07/31 03:00:21;;;;;;;;;;;;;;;19.81;54.59;101577.56;5017095;28;19925;-86
2022/07/31 03:02:46;;;;;;;;;;;;;;;19.69;57.58;101571.22;5018710;28;19917;-86
2022/07/31 03:05:12;;;;;;;;;;;;;;;19.55;56.62;101568.56;5020129;28;19917;-86
2022/07/31 03:07:37;;;;;;;;;;;;;;;19.48;57.59;101564.56;5020829;28;20055;-86
2022/07/31 03:10:02;;;;;;;;;;;;;;;19.49;56.37;101571.63;5020332;28;20364;-86
2022/07/31 03:12:27;;;;;;;;;;;;;;;19.59;55.23;101572.78;5008552;28;19913;-87
2022/07/31 03:14:53;;;;;;;;;;;;;;;19.67;54.82;101573.13;5003247;28;20332;-87
2022/07/31 03:17:18;;;;;;;;;;;;;;;19.72;56.57;101568.31;5001408;28;19925;-86
2022/07/31 03:19:44;;;;;;;;;;;;;;;19.51;57.90;101562.53;5006815;28;19921;-86
2022/07/31 03:22:09;;;;;;;;;;;;;;;19.43;57.23;101556.81;5025998;28;20006;-86
2022/07/31 03:24:34;;;;;;;;;;;;;;;19.47;56.85;101549.44;5019156;28;19928;-87
2022/07/31 03:27:00;;;;;;;;;;;;;;;19.47;55.75;101550.28;5028678;28;19932;-86
2022/07/31 03:29:25;;;;;;;;;;;;;;;19.56;56.03;101549.69;5021712;28;19965;-86
2022/07/31 03:31:50;;;;;;;;;;;;;;;19.61;58.87;101566.34;5022995;28;19917;-87
2022/07/31 03:34:16;;;;;;;;;;;;;;;19.55;56.03;101568.56;5005135;28;20010;-87
2022/07/31 03:36:41;;;;;;;;;;;;;;;19.44;57.11;101563.03;5005612;28;20369;-87
2022/07/31 03:39:06;;;;;;;;;;;;;;;19.51;57.14;101565.22;5020238;28;19925;-87
2022/07/31 03:41:32;;;;;;;;;;;;;;;19.56;56.63;101562.25;5003344;28;20397;-87
2022/07/31 03:43:57;;;;;;;;;;;;;;;19.63;56.33;101560.88;5020738;28;19924;-87
2022/07/31 03:46:22;;;;;;;;;;;;;;;19.59;58.75;101562.91;5004815;28;19925;-87
2022/07/31 03:48:50;;;;;;;;;;;;;;;19.53;56.42;101565.97;5005336;28;21008;-86
2022/07/31 03:51:16;;;;;;;;;;;;;;;19.55;56.01;101561.38;5021508;28;20233;-87
2022/07/31 03:53:42;;;;;;;;;;;;;;;19.59;54.96;101560.22;5020039;28;20386;-86
2022/07/31 03:56:08;;;;;;;;;;;;;;;19.67;55.13;101557.03;5024539;28;19916;-87
2022/07/31 03:58:34;;;;;;;;;;;;;;;19.72;56.04;101554.03;5022323;28;19952;-86
2022/07/31 04:00:59;;;;;;;;;;;;;;;19.70;56.81;101559.53;5022876;28;19956;-86
2022/07/31 04:03:29;;;;;;;;;;;;;;;19.67;56.43;101559.72;5022053;28;20112;-86
2022/07/31 04:05:54;;;;;;;;;;;;;;;19.72;56.48;101564.78;5004367;28;20720;-86
2022/07/31 04:08:19;;;;;;;;;;;;;;;19.77;55.63;101554.59;5021031;28;19979;-87
2022/07/31 04:10:44;;;;;;;;;;;;;;;19.83;56.17;101564.94;5003606;28;20000;-87
2022/07/31 04:13:10;;;;;;;;;;;;;;;19.88;55.43;101568.16;5020196;28;20203;-87
2022/07/31 04:15:35;;;;;;;;;;;;;;;19.93;57.33;101562.50;5020433;28;19936;-87
2022/07/31 04:18:00;;;;;;;;;;;;;;;19.94;55.84;101574.94;5017767;28;19948;-87
2022/07/31 04:20:25;;;;;;;;;;;;;;;19.88;56.09;101570.84;5022410;28;20373;-87
2022/07/31 04:22:50;;;;;;;;;;;;;;;19.86;56.44;101570.97;5003766;28;19968;-87
2022/07/31 04:25:16;;;;;;;;;;;;;;;19.83;56.29;101568.47;5002458;28;20363;-87
2022/07/31 04:27:41;;;;;;;;;;;;;;;19.78;55.26;101575.97;5017996;28;20271;-87
2022/07/31 04:30:07;;;;;;;;;;;;;;;19.81;56.15;101577.56;5020420;28;19921;-87
2022/07/31 04:32:32;;;;;;;;;;;;;;;19.82;55.24;101574.81;5020436;28;19920;-87
2022/07/31 04:34:58;;;;;;;;;;;;;;;19.80;56.68;101576.72;5020842;28;19918;-87
2022/07/31 04:37:23;;;;;;;;;;;;;;;19.81;56.42;101578.44;5021972;28;20273;-87
2022/07/31 04:39:48;;;;;;;;;;;;;;;19.86;55.83;101570.06;5019916;28;20059;-87
2022/07/31 04:42:14;;;;;;;;;;;;;;;19.88;55.79;101581.59;5020955;28;20545;-86
2022/07/31 04:44:39;;;;;;;;;;;;;;;19.80;58.47;101581.22;5005369;28;20269;-86
2022/07/31 04:47:05;;;;;;;;;;;;;;;19.61;56.92;101578.91;5021057;28;20006;-87
2022/07/31 04:49:31;;;;;;;;;;;;;;;19.54;60.81;101566.84;5020226;28;20257;-87
2022/07/31 04:51:59;;;;;;;;;;;;;;;19.49;59.62;101569.84;5021929;28;19922;-87
2022/07/31 04:54:25;;;;;;;;;;;;;;;19.51;57.87;101569.72;5019310;28;20419;-87
2022/07/31 04:56:50;;;;;;;;;;;;;;;19.64;58.55;101567.13;5004647;28;19925;-86
2022/07/31 04:59:16;;;;;;;;;;;;;;;19.69;58.25;101563.19;5022609;28;19924;-87
2022/07/31 05:01:42;;;;;;;;;;;;;;;19.66;59.47;101566.06;5021200;28;19939;-87
2022/07/31 05:04:08;;;;;;;;;;;;;;;19.65;58.59;101566.16;5002477;28;19925;-87
2022/07/31 05:06:34;;;;;;;;;;;;;;;19.76;58.58;101568.97;5019512;28;20399;-87
2022/07/31 05:09:00;;;;;;;;;;;;;;;19.80;59.24;101568.66;5000487;28;19924;-86
2022/07/31 05:11:25;;;;;;;;;;;;;;;19.87;58.05;101570.00;5020309;28;20194;-87
2022/07/31 05:13:51;;;;;;;;;;;;;;;19.88;59.46;101571.72;5020844;28;19971;-88
2022/07/31 05:16:17;;;;;;;;;;;;;;;19.86;58.64;101562.91;5029504;28;20305;-87
2022/07/31 05:18:44;;;;;;;;;;;;;;;19.84;59.34;101562.13;5024171;28;19920;-87
2022/07/31 05:21:09;;;;;;;;;;;;;;;19.81;58.66;101564.16;5002861;28;19917;-87
2022/07/31 05:23:34;;;;;;;;;;;;;;;19.78;59.35;101564.38;5018642;28;19921;-86
2022/07/31 05:26:00;;;;;;;;;;;;;;;19.84;58.66;101563.97;5018884;28;20408;-86
2022/07/31 05:28:26;;;;;;;;;;;;;;;19.87;59.17;101559.25;5004584;28;19992;-87
2022/07/31 05:30:51;;;;;;;;;;;;;;;19.83;61.01;101559.56;5004369;28;20373;-87
2022/07/31 05:33:16;;;;;;;;;;;;;;;19.78;62.69;101554.50;5023031;28;20336;-87
2022/07/31 05:35:41;;;;;;;;;;;;;;;19.74;63.09;101552.13;5021782;28;19924;-87
2022/07/31 05:38:06;;;;;;;;;;;;;;;19.70;61.48;101551.47;5007232;28;19936;-87
2022/07/31 05:40:31;;;;;;;;;;;;;;;19.67;63.69;101548.13;5020746;28;19948;-87
2022/07/31 05:42:57;;;;;;;;;;;;;;;19.60;61.74;101547.69;5018957;28;19928;-87
2022/07/31 05:45:22;;;;;;;;;;;;;;;19.60;65.43;101545.00;5023739;28;19917;-87
2022/07/31 05:47:47;;;;;;;;;;;;;;;19.55;61.99;101545.28;5018202;28;20351;-87
2022/07/31 05:50:13;;;;;;;;;;;;;;;19.66;60.85;101554.47;5020473;28;19917;-87
2022/07/31 05:52:38;;;;;;;;;;;;;;;19.73;61.22;101555.78;5020049;28;19991;-87
2022/07/31 05:55:04;;;;;;;;;;;;;;;19.65;64.28;101561.66;5020226;28;19921;-88
2022/07/31 05:57:29;;;;;;;;;;;;;;;19.60;66.07;101561.09;5019745;28;20368;-87
2022/07/31 05:59:54;;;;;;;;;;;;;;;19.57;62.28;101548.72;5020858;28;20297;-87
2022/07/31 06:02:19;;;;;;;;;;;;;;;19.55;63.34;101553.34;5004057;28;19924;-87
2022/07/31 06:04:45;;;;;;;;;;;;;;;19.61;63.81;101552.94;5020122;28;19928;-88
2022/07/31 06:07:10;;;;;;;;;;;;;;;19.65;63.52;101555.44;5018205;28;19932;-88
2022/07/31 06:09:35;;;;;;;;;;;;;;;19.58;65.95;101552.25;5025257;28;20380;-88
2022/07/31 06:12:00;;;;;;;;;;;;;;;19.64;63.73;101551.91;5021438;28;20288;-87
2022/07/31 06:14:26;;;;;;;;;;;;;;;19.67;64.87;101561.53;5026719;28;19976;-88
2022/07/31 06:16:52;;;;;;;;;;;;;;;19.74;63.32;101563.72;5027360;28;19917;-88
2022/07/31 06:19:19;;;;;;;;;;;;;;;19.78;63.65;101559.03;5021926;28;19944;-88
2022/07/31 06:21:44;;;;;;;;;;;;;;;19.77;65.70;101557.28;5017839;28;19979;-88
2022/07/31 06:24:09;;;;;;;;;;;;;;;19.74;64.03;101561.03;5023230;28;20454;-88
2022/07/31 06:26:35;;;;;;;;;;;;;;;19.76;63.32;101551.06;5017917;28;20050;-88
2022/07/31 06:29:00;;;;;;;;;;;;;;;19.91;64.10;101548.28;5021096;28;19921;-88
2022/07/31 06:31:25;;;;;;;;;;;;;;;20.07;62.20;101554.34;5020252;28;19923;-88
2022/07/31 06:33:50;;;;;;;;;;;;;;;20.18;65.11;101551.78;4997693;28;19921;-87
2022/07/31 06:36:16;;;;;;;;;;;;;;;20.28;63.59;101542.09;5015113;28;20380;-87
2022/07/31 06:38:41;;;;;;;;;;;;;;;20.33;61.89;101542.66;5023888;28;19999;-87
2022/07/31 06:41:06;;;;;;;;;;;;;;;20.30;62.80;101545.56;5020431;28;19960;-87
2022/07/31 06:43:31;;;;;;;;;;;;;;;20.37;62.73;101541.47;5027573;28;20380;-87
2022/07/31 06:45:57;;;;;;;;;;;;;;;20.29;63.21;101546.53;5027222;28;19921;-87
2022/07/31 06:48:22;;;;;;;;;;;;;;;20.27;65.95;101544.91;5024456;28;20447;-87
2022/07/31 06:50:47;;;;;;;;;;;;;;;20.24;63.89;101540.63;5025829;28;20008;-87
2022/07/31 06:53:12;;;;;;;;;;;;;;;20.31;63.53;101547.28;5008577;28;19928;-87
2022/07/31 06:55:37;;;;;;;;;;;;;;;20.33;64.76;101549.84;5024711;28;19928;-87
2022/07/31 06:58:03;;;;;;;;;;;;;;;20.47;63.40;101546.19;5028447;28;20416;-88
2022/07/31 07:00:28;;;;;;;;;;;;;;;20.54;63.19;101539.47;5023467;28;19921;-87
2022/07/31 07:02:53;;;;;;;;;;;;;;;20.51;64.14;101548.59;5027650;28;20009;-87
2022/07/31 07:05:20;;;;;;;;;;;;;;;20.62;62.71;101539.78;5009865;28;19925;-87
2022/07/31 07:07:45;;;;;;;;;;;;;;;20.81;63.91;101542.88;5025177;28;20776;-87
2022/07/31 07:10:10;;;;;;;;;;;;;;;20.81;63.46;101545.56;5006630;28;19921;-87
2022/07/31 07:12:36;;;;;;;;;;;;;;;20.93;63.92;101543.78;5020241;28;20016;-86
2022/07/31 07:15:01;;;;;;;;;;;;;;;21.10;62.56;101537.19;5004102;28;19921;-87
2022/07/31 07:17:26;;;;;;;;;;;;;;;21.18;61.68;101540.19;5023682;28;20324;-87
2022/07/31 07:19:51;;;;;;;;;;;;;;;21.25;62.25;101540.56;5010122;28;19917;-87
2022/07/31 07:22:16;;;;;;;;;;;;;;;21.45;61.03;101540.00;5025406;28;19917;-86
2022/07/31 07:24:42;;;;;;;;;;;;;;;21.54;61.10;101544.69;5023845;28;19987;-87
2022/07/31 07:27:07;;;;;;;;;;;;;;;21.67;61.30;101538.38;5021569;28;20298;-86
2022/07/31 07:29:33;;;;;;;;;;;;;;;21.79;60.71;101532.06;5014458;28;20204;-87
2022/07/31 07:31:58;;;;;;;;;;;;;;;21.99;60.65;101535.91;5019585;28;19921;-87
2022/07/31 07:34:24;;;;;;;;;;;;;;;22.11;61.36;101540.38;5023511;28;20309;-87
2022/07/31 07:36:49;;;;;;;;;;;;;;;22.33;59.90;101542.25;5019400;28;19921;-87
2022/07/31 07:39:14;;;;;;;;;;;;;;;22.44;60.74;101536.03;5023492;28;20474;-87
2022/07/31 07:41:40;;;;;;;;;;;;;;;22.39;59.98;101536.41;5003425;28;19917;-87
2022/07/31 07:44:06;;;;;;;;;;;;;;;22.42;59.60;101537.00;5008851;28;19913;-86
2022/07/31 07:46:31;;;;;;;;;;;;;;;22.40;60.41;101535.41;5029246;28;20113;-87
2022/07/31 07:48:56;;;;;;;;;;;;;;;22.54;60.04;101539.72;5025157;28;19922;-86
2022/07/31 07:51:21;;;;;;;;;;;;;;;22.62;59.80;101527.34;5027068;28;20360;-86
2022/07/31 07:53:47;;;;;;;;;;;;;;;22.69;59.52;101532.22;5024301;28;19947;-86
2022/07/31 07:56:12;;;;;;;;;;;;;;;22.80;59.32;101530.41;5024457;28;19913;-86
2022/07/31 07:58:37;;;;;;;;;;;;;;;22.92;58.48;101532.13;4999601;28;19983;-87
2022/07/31 08:01:02;;;;;;;;;;;;;;;22.85;59.65;101520.09;5020935;28;20403;-86
2022/07/31 08:03:28;;;;;;;;;;;;;;;22.57;60.38;101540.31;5004146;28;19914;-87
2022/07/31 08:05:53;;;;;;;;;;;;;;;22.47;60.09;101533.06;5029953;28;19913;-86
2022/07/31 08:08:18;;;;;;;;;;;;;;;22.55;59.63;101527.94;5023151;28;19928;-86
2022/07/31 08:10:43;;;;;;;;;;;;;;;22.64;60.02;101522.66;5011862;28;20434;-86
2022/07/31 08:13:09;;;;;;;;;;;;;;;22.81;58.92;101526.72;5023144;28;19921;-86
2022/07/31 08:15:34;;;;;;;;;;;;;;;22.91;58.96;101521.47;5009226;28;20399;-86
2022/07/31 08:17:59;;;;;;;;;;;;;;;23.04;59.24;101529.41;5034333;28;19931;-86
2022/07/31 08:20:24;;;;;;;;;;;;;;;23.13;58.87;101525.97;5023722;28;19917;-86
2022/07/31 08:22:50;;;;;;;;;;;;;;;23.32;58.46;101526.16;5006254;28;20444;-86
2022/07/31 08:25:15;;;;;;;;;;;;;;;23.23;58.62;101521.53;5029701;28;19976;-86
2022/07/31 08:27:40;;;;;;;;;;;;;;;23.13;58.95;101517.88;5024811;28;19948;-86
2022/07/31 08:30:06;;;;;;;;;;;;;;;23.07;59.11;101512.97;5019269;28;20727;-87
2022/07/31 08:32:31;;;;;;;;;;;;;;;23.02;58.60;101510.63;5022671;28;19917;-86
2022/07/31 08:34:57;;;;;;;;;;;;;;;23.17;58.73;101511.22;5027277;28;20264;-86
2022/07/31 08:37:22;;;;;;;;;;;;;;;23.25;58.67;101521.38;5024926;28;20446;-87
2022/07/31 08:39:49;;;;;;;;;;;;;;;23.22;58.82;101519.78;5025417;28;19979;-87
2022/07/31 08:42:14;;;;;;;;;;;;;;;22.94;59.38;101521.19;5028469;28;19971;-87
2022/07/31 08:44:40;;;;;;;;;;;;;;;23.04;59.17;101519.47;5023333;28;19921;-87
2022/07/31 08:47:06;;;;;;;;;;;;;;;23.00;59.70;101531.50;5027092;28;20298;-86
2022/07/31 08:49:35;;;;;;;;;;;;;;;23.01;58.72;101525.13;5024873;28;20291;-87
2022/07/31 08:52:01;;;;;;;;;;;;;;;23.17;59.21;101530.09;5025271;28;19999;-86
2022/07/31 08:54:26;;;;;;;;;;;;;;;23.10;58.79;101521.66;5024849;28;20356;-87
2022/07/31 08:56:52;;;;;;;;;;;;;;;23.19;58.42;101519.19;5023409;28;19927;-87
2022/07/31 08:59:18;;;;;;;;;;;;;;;23.09;58.88;101522.66;5025790;28;19924;-87
2022/07/31 09:01:44;;;;;;;;;;;;;;;23.13;58.71;101529.53;5019324;28;19924;-87
2022/07/31 09:04:09;;;;;;;;;;;;;;;23.03;60.27;101525.84;5004994;28;19929;-87
2022/07/31 09:06:35;;;;;;;;;;;;;;;22.88;60.15;101530.63;5015416;28;20360;-87
2022/07/31 09:09:00;;;;;;;;;;;;;;;22.83;60.22;101532.81;5022249;28;19940;-86
2022/07/31 09:11:26;;;;;;;;;;;;;;;22.90;59.75;101526.00;5026762;28;20396;-86
2022/07/31 09:13:52;;;;;;;;;;;;;;;22.94;61.00;101525.72;5010289;28;19929;-86
2022/07/31 09:16:17;;;;;;;;;;;;;;;23.01;60.48;101517.03;5025478;28;19984;-86
2022/07/31 09:18:42;;;;;;;;;;;;;;;23.16;60.06;101510.38;5022408;28;20422;-86
2022/07/31 09:21:08;;;;;;;;;;;;;;;23.13;59.73;101513.34;5026546;28;20409;-86
2022/07/31 09:23:42;;;;;;;;;;;;;;;23.22;59.46;101508.13;5026669;28;19925;-87
2022/07/31 09:26:07;;;;;;;;;;;;;;;23.26;59.44;101515.84;5025104;28;19925;-87
2022/07/31 09:28:34;;;;;;;;;;;;;;;23.24;59.33;101517.84;5022040;28;19927;-86
2022/07/31 09:30:59;;;;;;;;;;;;;;;23.36;59.25;101521.34;5008904;28;20469;-87
2022/07/31 09:33:26;;;;;;;;;;;;;;;23.45;59.22;101517.00;5017844;28;19928;-87
2022/07/31 09:35:52;;;;;;;;;;;;;;;23.56;58.95;101515.16;5027650;28;20024;-86
2022/07/31 09:38:17;;;;;;;;;;;;;;;23.83;57.83;101514.69;5025437;28;20016;-86
2022/07/31 09:40:44;;;;;;;;;;;;;;;24.20;57.32;101508.78;5007968;28;19925;-87
2022/07/31 09:43:13;;;;;;;;;;;;;;;24.36;57.03;101511.91;5025820;28;19925;-87
2022/07/31 09:45:38;;;;;;;;;;;;;;;24.46;57.08;101511.09;5022302;28;19957;-87
2022/07/31 09:48:04;;;;;;;;;;;;;;;24.55;56.67;101503.03;5022420;28;20450;-86
2022/07/31 09:50:30;;;;;;;;;;;;;;;24.75;56.55;101508.50;5026003;28;19913;-87
2022/07/31 09:52:59;;;;;;;;;;;;;;;24.99;55.67;101503.56;5026549;28;20216;-86
2022/07/31 09:55:24;;;;;;;;;;;;;;;25.28;55.04;101506.38;5024554;28;19925;-86
2022/07/31 09:57:54;;;;;;;;;;;;;;;25.61;54.20;101504.25;5009116;28;20008;-87
2022/07/31 10:00:19;;;;;;;;;;;;;;;25.63;53.81;101507.66;5007251;28;20019;-88
2022/07/31 10:02:46;;;;;;;;;;;;;;;25.64;54.01;101504.78;5022946;28;20075;-86
2022/07/31 10:05:11;;;;;;;;;;;;;;;25.86;53.59;101498.25;5022332;28;19970;-86
2022/07/31 10:07:37;;;;;;;;;;;;;;;26.28;53.00;101499.72;5013208;28;20380;-87
2022/07/31 10:10:05;;;;;;;;;;;;;;;26.50;51.99;101499.41;5019752;28;19979;-87
2022/07/31 10:12:32;;;;;;;;;;;;;;;26.44;52.17;101490.00;5018673;28;20153;-87
2022/07/31 10:15:01;;;;;;;;;;;;;;;26.20;52.61;101505.88;5020969;28;19921;-87
2022/07/31 10:17:29;;;;;;;;;;;;;;;26.07;52.84;101502.66;5022419;28;20254;-87
2022/07/31 10:19:57;;;;;;;;;;;;;;;25.76;53.36;101507.41;5022492;28;19923;-88
2022/07/31 10:22:24;;;;;;;;;;;;;;;25.59;53.85;101506.22;5016846;28;19956;-86
2022/07/31 10:24:51;;;;;;;;;;;;;;;25.63;53.53;101500.38;5027038;28;19929;-86
2022/07/31 10:27:18;;;;;;;;;;;;;;;25.55;53.92;101494.81;5020065;28;20291;-86
2022/07/31 10:29:43;;;;;;;;;;;;;;;25.36;54.04;101495.66;5018933;28;19922;-86
2022/07/31 10:32:08;;;;;;;;;;;;;;;25.18;54.37;101491.94;5025633;28;20304;-87
2022/07/31 10:34:34;;;;;;;;;;;;;;;25.29;54.51;101491.00;5001526;28;19929;-87
2022/07/31 10:37:08;;;;;;;;;;;;;;;25.52;53.66;101488.84;5024239;28;19921;-87
2022/07/31 10:39:41;;;;;;;;;;;;;;;25.64;53.85;101484.97;5021921;28;20353;-87
2022/07/31 10:42:25;;;;;;;;;;;;;;;25.71;53.42;101488.84;5017732;28;19917;-87
2022/07/31 10:45:03;;;;;;;;;;;;;;;25.93;53.01;101483.13;5017615;28;20497;-87
2022/07/31 10:47:28;;;;;;;;;;;;;;;26.19;52.61;101490.63;5009533;28;19982;-87
2022/07/31 10:49:53;;;;;;;;;;;;;;;26.12;51.91;101484.09;5021093;28;19925;-87
2022/07/31 10:52:29;;;;;;;;;;;;;;;26.08;52.38;101488.09;5028525;28;19925;-87
2022/07/31 10:54:59;;;;;;;;;;;;;;;26.33;51.83;101487.44;5006726;28;19929;-87
2022/07/31 10:57:25;;;;;;;;;;;;;;;26.26;51.58;101482.78;5023739;28;20555;-87
2022/07/31 10:59:51;;;;;;;;;;;;;;;26.21;51.85;101477.78;5026729;28;19928;-87
2022/07/31 11:02:27;;;;;;;;;;;;;;;26.06;52.16;101477.38;5022411;28;19921;-87
2022/07/31 11:04:52;;;;;;;;;;;;;;;25.88;52.01;101476.41;5022015;28;19928;-87
2022/07/31 11:07:20;;;;;;;;;;;;;;;25.73;52.46;101470.56;5022654;28;19925;-87
2022/07/31 11:09:45;;;;;;;;;;;;;;;25.68;52.57;101470.16;5026499;28;20454;-87
2022/07/31 11:12:17;;;;;;;;;;;;;;;25.77;52.48;101463.91;5023978;28;19987;-88
2022/07/31 11:14:42;;;;;;;;;;;;;;;25.92;52.58;101459.72;5023907;28;20481;-88
2022/07/31 11:17:08;;;;;;;;;;;;;;;26.26;51.69;101455.66;5029920;28;20019;-87
2022/07/31 11:19:37;;;;;;;;;;;;;;;26.61;51.19;101461.22;5021485;28;20050;-88
2022/07/31 11:22:13;;;;;;;;;;;;;;;26.71;50.62;101463.88;5022381;28;20011;-88
2022/07/31 11:24:38;;;;;;;;;;;;;;;26.39;51.11;101457.03;5020708;28;19980;-87
2022/07/31 11:27:04;;;;;;;;;;;;;;;26.37;51.12;101458.16;5021127;28;19925;-88
2022/07/31 11:29:31;;;;;;;;;;;;;;;26.35;51.26;101457.47;5024033;28;19917;-88
2022/07/31 11:32:06;;;;;;;;;;;;;;;26.45;51.30;101453.75;5006921;28;20269;-86
2022/07/31 11:34:42;;;;;;;;;;;;;;;26.72;51.17;101457.47;5021497;28;20388;-86
2022/07/31 11:37:12;;;;;;;;;;;;;;;26.87;50.12;101450.50;5001305;28;20431;-86
2022/07/31 11:39:39;;;;;;;;;;;;;;;26.90;50.00;101444.75;5005201;28;19921;-86
2022/07/31 11:42:04;;;;;;;;;;;;;;;26.88;50.39;101440.50;5021252;28;19921;-85
2022/07/31 11:44:29;;;;;;;;;;;;;;;27.07;49.76;101445.78;5019807;28;20606;-85
2022/07/31 11:46:55;;;;;;;;;;;;;;;27.22;49.14;101446.13;5022577;28;19921;-86
2022/07/31 11:49:21;;;;;;;;;;;;;;;27.19;49.22;101441.03;5018269;28;20346;-85
2022/07/31 11:51:46;;;;;;;;;;;;;;;27.13;49.24;101436.19;5020472;28;19932;-85
2022/07/31 11:54:20;;;;;;;;;;;;;;;27.52;48.88;101441.31;5025784;28;19929;-86
2022/07/31 11:56:46;;;;;;;;;;;;;;;27.72;48.12;101437.41;5018151;28;20431;-86
2022/07/31 11:59:11;;;;;;;;;;;;;;;27.62;48.65;101440.19;5018692;28;20003;-83
2022/07/31 12:01:36;;;;;;;;;;;;;;;27.55;48.15;101440.97;5019250;28;19982;-83
2022/07/31 12:04:02;;;;;;;;;;;;;;;27.49;48.77;101439.75;5020309;28;20315;-84
2022/07/31 12:06:27;;;;;;;;;;;;;;;27.46;49.08;101438.19;5017045;28;19932;-83
2022/07/31 12:08:52;;;;;;;;;;;;;;;27.52;48.72;101444.88;5026473;28;20383;-83
2022/07/31 12:11:19;;;;;;;;;;;;;;;27.52;48.01;101450.31;5010438;28;20369;-83
2022/07/31 12:13:46;;;;;;;;;;;;;;;27.75;47.70;101444.41;5020044;28;20011;-82
2022/07/31 12:16:11;;;;;;;;;;;;;;;28.01;46.79;101441.69;5008802;28;20296;-82
2022/07/31 12:18:45;;;;;;;;;;;;;;;28.07;47.04;101444.63;5026894;28;19921;-82
2022/07/31 12:21:11;;;;;;;;;;;;;;;27.95;46.77;101435.03;5022528;28;19944;-83
2022/07/31 12:23:45;;;;;;;;;;;;;;;27.97;47.34;101438.41;5024799;28;19921;-83
2022/07/31 12:26:11;;;;;;;;;;;;;;;27.99;46.76;101430.13;5007622;28;20355;-82
2022/07/31 12:28:37;;;;;;;;;;;;;;;28.11;45.97;101435.09;5008575;28;20032;-82
2022/07/31 12:31:02;;;;;;;;;;;;;;;28.52;46.63;101431.75;5022426;28;20380;-83